^^
Saratoga-Weather Station Historical Data
Daily Summary for October 20, 2020 Units:  Metric    English   Both
Daily Weekly Monthly Yearly Custom
  High: Low: Average:
Temperature: 14.8 °C 3.9 °C 9.2 °C
Dew Point: 12.5 °C 3.3 °C 7.8 °C
Humidity: 97% 82% 92%
Wind Speed: 4.7km/h 0km/h 0.2km/h
Wind Gust: 6.4km/h - -
Wind- - South
Pressure: 1014.9 hPa 1008.8 hPa -
Precipitation: 0.0 mm    
Historical Graphs
 
 
Tabular Data for October 20, 2020
Time Temperature Dew Point Pressure Wind Wind Speed Wind Gust Humidity Rainfall Rate (Hourly) solar
00:49 4.8 °C 3.8 °C 1014.9 hPa Calm     93% 0.0 mm 0 W/m2
00:54 4.8 °C 3.8 °C 1014.9 hPa Calm     93% 0.0 mm 0 W/m2
00:59 4.8 °C 3.8 °C 1014.9 hPa Calm     93% 0.0 mm 0 W/m2
01:04 4.7 °C 3.7 °C 1014.9 hPa Calm     93% 0.0 mm 0 W/m2
01:09 4.7 °C 3.7 °C 1014.9 hPa Calm     93% 0.0 mm 0 W/m2
01:14 4.7 °C 3.8 °C 1014.9 hPa Calm     94% 0.0 mm 0 W/m2
01:19 4.7 °C 3.8 °C 1014.6 hPa Calm     94% 0.0 mm 0 W/m2
01:24 4.7 °C 3.8 °C 1014.6 hPa Calm   1.6 km/h 94% 0.0 mm 0 W/m2
01:29 4.7 °C 3.8 °C 1014.6 hPa SE 1.4 km/h 1.6 km/h 94% 0.0 mm 0 W/m2
01:34 4.7 °C 3.8 °C 1014.6 hPa Calm     94% 0.0 mm 0 W/m2
01:39 4.7 °C 3.8 °C 1014.6 hPa SE 1.4 km/h 3.2 km/h 94% 0.0 mm 0 W/m2
01:44 4.7 °C 3.8 °C 1014.6 hPa Calm   1.6 km/h 94% 0.0 mm 0 W/m2
01:50 4.7 °C 3.8 °C 1014.6 hPa SE 1.4 km/h 3.2 km/h 94% 0.0 mm 0 W/m2
01:55 4.7 °C 3.8 °C 1014.6 hPa Calm     94% 0.0 mm 0 W/m2
02:00 4.6 °C 3.7 °C 1014.6 hPa Calm     94% 0.0 mm 0 W/m2
02:05 4.6 °C 3.7 °C 1014.6 hPa Calm     94% 0.0 mm 0 W/m2
02:10 4.5 °C 3.6 °C 1014.6 hPa Calm     94% 0.0 mm 0 W/m2
02:15 4.5 °C 3.6 °C 1014.6 hPa Calm     94% 0.0 mm 0 W/m2
02:20 4.4 °C 3.5 °C 1014.2 hPa Calm     94% 0.0 mm 0 W/m2
02:25 4.4 °C 3.7 °C 1014.6 hPa Calm     95% 0.0 mm 0 W/m2
02:30 4.4 °C 3.5 °C 1014.2 hPa Calm     94% 0.0 mm 0 W/m2
02:35 4.4 °C 3.5 °C 1014.6 hPa Calm     94% 0.0 mm 0 W/m2
02:40 4.4 °C 3.5 °C 1014.2 hPa Calm     94% 0.0 mm 0 W/m2
02:45 4.4 °C 3.5 °C 1014.2 hPa Calm     94% 0.0 mm 0 W/m2
02:50 4.4 °C 3.5 °C 1014.2 hPa Calm     94% 0.0 mm 0 W/m2
02:55 4.3 °C 3.4 °C 1014.2 hPa Calm     94% 0.0 mm 0 W/m2
03:00 4.3 °C 3.6 °C 1014.2 hPa Calm     95% 0.0 mm 0 W/m2
03:05 4.3 °C 3.6 °C 1013.9 hPa Calm     95% 0.0 mm 0 W/m2
03:10 4.3 °C 3.6 °C 1013.9 hPa Calm     95% 0.0 mm 0 W/m2
03:15 4.2 °C 3.5 °C 1013.9 hPa Calm     95% 0.0 mm 0 W/m2
03:20 4.2 °C 3.5 °C 1013.9 hPa Calm   1.6 km/h 95% 0.0 mm 0 W/m2
03:25 4.2 °C 3.5 °C 1013.9 hPa Calm     95% 0.0 mm 0 W/m2
03:30 4.2 °C 3.5 °C 1013.9 hPa Calm     95% 0.0 mm 0 W/m2
03:35 4.2 °C 3.5 °C 1013.5 hPa Calm     95% 0.0 mm 0 W/m2
03:40 4.2 °C 3.5 °C 1013.5 hPa Calm     95% 0.0 mm 0 W/m2
03:45 4.1 °C 3.4 °C 1013.5 hPa Calm     95% 0.0 mm 0 W/m2
03:50 4.1 °C 3.4 °C 1013.5 hPa Calm     95% 0.0 mm 0 W/m2
03:55 4.1 °C 3.4 °C 1013.5 hPa Calm     95% 0.0 mm 0 W/m2
04:00 4.1 °C 3.4 °C 1013.2 hPa Calm     95% 0.0 mm 0 W/m2
04:05 4.1 °C 3.4 °C 1013.5 hPa Calm     95% 0.0 mm 0 W/m2
04:10 4.2 °C 3.5 °C 1013.5 hPa Calm     95% 0.0 mm 0 W/m2
04:15 4.2 °C 3.5 °C 1013.5 hPa Calm     95% 0.0 mm 0 W/m2
04:20 4.2 °C 3.5 °C 1013.5 hPa Calm     95% 0.0 mm 0 W/m2
04:25 4.2 °C 3.5 °C 1013.5 hPa Calm     95% 0.0 mm 0 W/m2
04:30 4.3 °C 3.6 °C 1013.5 hPa Calm     95% 0.0 mm 0 W/m2
04:35 4.2 °C 3.5 °C 1013.5 hPa Calm     95% 0.0 mm 0 W/m2
04:40 4.2 °C 3.5 °C 1013.5 hPa Calm     95% 0.0 mm 0 W/m2
04:45 4.2 °C 3.5 °C 1013.2 hPa Calm     95% 0.0 mm 0 W/m2
04:50 4.2 °C 3.5 °C 1013.2 hPa Calm     95% 0.0 mm 0 W/m2
04:55 4.2 °C 3.5 °C 1013.2 hPa Calm     95% 0.0 mm 0 W/m2
05:00 4.2 °C 3.5 °C 1012.9 hPa Calm     95% 0.0 mm 0 W/m2
05:05 4.2 °C 3.5 °C 1012.9 hPa Calm     95% 0.0 mm 0 W/m2
05:10 4.2 °C 3.5 °C 1012.9 hPa Calm     95% 0.0 mm 0 W/m2
05:15 4.2 °C 3.5 °C 1012.9 hPa Calm     95% 0.0 mm 0 W/m2
05:20 4.2 °C 3.6 °C 1013.2 hPa Calm     96% 0.0 mm 0 W/m2
05:25 4.2 °C 3.6 °C 1012.9 hPa Calm     96% 0.0 mm 0 W/m2
05:30 4.2 °C 3.6 °C 1012.9 hPa Calm     96% 0.0 mm 0 W/m2
05:35 4.2 °C 3.6 °C 1012.9 hPa Calm     96% 0.0 mm 0 W/m2
05:40 4.1 °C 3.5 °C 1012.5 hPa Calm     96% 0.0 mm 0 W/m2
05:45 4.1 °C 3.5 °C 1012.5 hPa Calm     96% 0.0 mm 0 W/m2
05:50 4.1 °C 3.4 °C 1012.5 hPa Calm     95% 0.0 mm 0 W/m2
05:55 4.1 °C 3.4 °C 1012.9 hPa Calm     95% 0.0 mm 0 W/m2
06:00 4 °C 3.3 °C 1012.5 hPa Calm     95% 0.0 mm 0 W/m2
06:05 4.1 °C 3.4 °C 1012.5 hPa Calm     95% 0.0 mm 0 W/m2
06:10 4.1 °C 3.5 °C 1012.5 hPa Calm     96% 0.0 mm 0 W/m2
06:15 4.1 °C 3.5 °C 1012.5 hPa Calm     96% 0.0 mm 0 W/m2
06:20 4.1 °C 3.5 °C 1012.5 hPa Calm     96% 0.0 mm 0 W/m2
06:25 4.1 °C 3.5 °C 1012.5 hPa Calm     96% 0.0 mm 0 W/m2
06:30 4.1 °C 3.4 °C 1012.5 hPa Calm     95% 0.0 mm 0 W/m2
06:35 4 °C 3.4 °C 1012.5 hPa Calm     96% 0.0 mm 0 W/m2
06:40 4 °C 3.4 °C 1012.5 hPa Calm     96% 0.0 mm 0 W/m2
06:45 3.9 °C 3.3 °C 1012.9 hPa Calm     96% 0.0 mm 0 W/m2
06:50 3.9 °C 3.3 °C 1012.9 hPa Calm     96% 0.0 mm 0 W/m2
06:55 4 °C 3.4 °C 1012.5 hPa Calm     96% 0.0 mm 0 W/m2
07:00 4.1 °C 3.5 °C 1012.5 hPa Calm     96% 0.0 mm 0 W/m2
07:05 4.3 °C 3.7 °C 1012.5 hPa Calm     96% 0.0 mm 0 W/m2
07:10 4.3 °C 3.7 °C 1012.5 hPa Calm     96% 0.0 mm 0 W/m2
07:15 4.4 °C 3.8 °C 1012.5 hPa Calm     96% 0.0 mm 0 W/m2
07:20 4.4 °C 3.8 °C 1012.5 hPa Calm     96% 0.0 mm 0 W/m2
07:25 4.4 °C 3.8 °C 1012.2 hPa Calm     96% 0.0 mm 0 W/m2
07:30 4.3 °C 3.7 °C 1012.5 hPa Calm     96% 0.0 mm 0 W/m2
07:35 4.3 °C 3.7 °C 1012.5 hPa Calm     96% 0.0 mm 0 W/m2
07:40 4.3 °C 3.7 °C 1012.5 hPa SE 1.4 km/h 1.6 km/h 96% 0.0 mm 0 W/m2
07:45 4.3 °C 3.7 °C 1012.2 hPa Calm   1.6 km/h 96% 0.0 mm 0 W/m2
07:50 4.3 °C 3.7 °C 1012.2 hPa Calm     96% 0.0 mm 0 W/m2
07:55 4.3 °C 3.7 °C 1012.2 hPa Calm     96% 0.0 mm 0 W/m2
08:00 4.5 °C 3.9 °C 1012.2 hPa Calm     96% 0.0 mm 0 W/m2
08:05 4.6 °C 4 °C 1012.2 hPa Calm     96% 0.0 mm 0 W/m2
08:10 4.6 °C 4 °C 1012.2 hPa Calm     96% 0.0 mm 0 W/m2
08:15 4.6 °C 4 °C 1012.2 hPa Calm   1.6 km/h 96% 0.0 mm 0 W/m2
08:20 4.4 °C 3.8 °C 1012.5 hPa Calm     96% 0.0 mm 7 W/m2
08:25 4.4 °C 3.8 °C 1012.2 hPa Calm   1.6 km/h 96% 0.0 mm 9 W/m2
08:30 4.4 °C 3.8 °C 1012.2 hPa Calm     96% 0.0 mm 12 W/m2
08:35 4.4 °C 3.8 °C 1012.5 hPa Calm     96% 0.0 mm 12 W/m2
08:40 4.4 °C 3.8 °C 1012.5 hPa Calm     96% 0.0 mm 14 W/m2
08:45 4.4 °C 3.8 °C 1012.9 hPa Calm     96% 0.0 mm 19 W/m2
08:50 4.5 °C 3.9 °C 1012.9 hPa Calm     96% 0.0 mm 23 W/m2
08:55 4.6 °C 4 °C 1012.5 hPa Calm     96% 0.0 mm 32 W/m2
09:00 4.7 °C 4.1 °C 1012.5 hPa Calm     96% 0.0 mm 33 W/m2
09:05 5.1 °C 4.7 °C 1012.5 hPa Calm     97% 0.0 mm 35 W/m2
09:10 5.3 °C 4.9 °C 1012.5 hPa Calm     97% 0.0 mm 40 W/m2
09:15 5.4 °C 5 °C 1012.9 hPa Calm   1.6 km/h 97% 0.0 mm 54 W/m2
09:20 5.5 °C 5.1 °C 1012.5 hPa Calm     97% 0.0 mm 72 W/m2
09:25 5.6 °C 5.2 °C 1012.5 hPa Calm   1.6 km/h 97% 0.0 mm 69 W/m2
09:30 5.7 °C 5.1 °C 1012.5 hPa Calm   1.6 km/h 96% 0.0 mm 67 W/m2
09:35 5.8 °C 5.4 °C 1012.9 hPa SE 1.4 km/h 1.6 km/h 97% 0.0 mm 72 W/m2
09:40 5.8 °C 5.2 °C 1012.9 hPa Calm     96% 0.0 mm 83 W/m2
09:45 5.9 °C 5.3 °C 1012.9 hPa Calm     96% 0.0 mm 83 W/m2
09:50 6.1 °C 5.7 °C 1012.9 hPa Calm     97% 0.0 mm 104 W/m2
09:55 6.3 °C 5.9 °C 1012.9 hPa Calm     97% 0.0 mm 144 W/m2
10:01 6.6 °C 6.2 °C 1012.9 hPa Calm   1.6 km/h 97% 0.0 mm 158 W/m2
10:06 7 °C 6.6 °C 1012.5 hPa Calm     97% 0.0 mm 190 W/m2
10:11 7.3 °C 6.9 °C 1012.5 hPa Calm   3.2 km/h 97% 0.0 mm 91 W/m2
10:16 7.4 °C 7 °C 1012.9 hPa North 1.4 km/h 3.2 km/h 97% 0.0 mm 72 W/m2
10:21 7.6 °C 7.2 °C 1012.5 hPa North 1.4 km/h 1.6 km/h 97% 0.0 mm 58 W/m2
10:26 7.7 °C 7.3 °C 1012.5 hPa Calm   3.2 km/h 97% 0.0 mm 65 W/m2
10:31 7.7 °C 7.1 °C 1012.5 hPa Calm     96% 0.0 mm 60 W/m2
10:36 7.8 °C 7.2 °C 1012.5 hPa NNE 1.4 km/h 1.6 km/h 96% 0.0 mm 65 W/m2
10:41 7.9 °C 7.1 °C 1012.5 hPa Calm     95% 0.0 mm 79 W/m2
10:46 8.1 °C 7.3 °C 1012.9 hPa Calm   1.6 km/h 95% 0.0 mm 90 W/m2
10:51 8.2 °C 7.3 °C 1012.9 hPa North 1.4 km/h 1.6 km/h 94% 0.0 mm 111 W/m2
10:56 8.4 °C 7.5 °C 1012.9 hPa Calm   1.6 km/h 94% 0.0 mm 137 W/m2
11:01 8.6 °C 7.5 °C 1012.9 hPa NW 1.4 km/h 3.2 km/h 93% 0.0 mm 130 W/m2
11:06 8.8 °C 7.6 °C 1012.9 hPa West 3.2 km/h 6.4 km/h 92% 0.0 mm 109 W/m2
11:11 8.9 °C 7.5 °C 1012.9 hPa WNW 1.4 km/h 4.8 km/h 91% 0.0 mm 84 W/m2
11:16 9.1 °C 7.7 °C 1012.9 hPa Calm   6.4 km/h 91% 0.0 mm 107 W/m2
11:21 9.2 °C 7.8 °C 1012.9 hPa Calm     91% 0.0 mm 134 W/m2
11:26 9.4 °C 7.8 °C 1012.9 hPa Calm   1.6 km/h 90% 0.0 mm 123 W/m2
11:31 9.6 °C 8 °C 1012.9 hPa Calm     90% 0.0 mm 88 W/m2
11:36 9.7 °C 8 °C 1012.9 hPa Calm     89% 0.0 mm 70 W/m2
11:41 9.8 °C 8.1 °C 1012.9 hPa Calm     89% 0.0 mm 100 W/m2
11:46 9.9 °C 8.2 °C 1012.9 hPa Calm     89% 0.0 mm 102 W/m2
11:51 9.9 °C 8 °C 1013.2 hPa Calm     88% 0.0 mm 86 W/m2
11:56 10.1 °C 8 °C 1013.2 hPa Calm     87% 0.0 mm 83 W/m2
12:01 10.2 °C 8.1 °C 1013.2 hPa Calm     87% 0.0 mm 91 W/m2
12:06 10.2 °C 8.1 °C 1013.2 hPa Calm   1.6 km/h 87% 0.0 mm 97 W/m2
12:11 10.3 °C 8.2 °C 1012.9 hPa Calm     87% 0.0 mm 125 W/m2
12:16 10.4 °C 8.3 °C 1012.9 hPa Calm     87% 0.0 mm 109 W/m2
12:21 10.5 °C 8.4 °C 1012.9 hPa WNW 1.4 km/h 1.6 km/h 87% 0.0 mm 125 W/m2
12:26 10.6 °C 8.5 °C 1012.9 hPa Calm   1.6 km/h 87% 0.0 mm 163 W/m2
12:31 10.7 °C 8.6 °C 1012.9 hPa Calm   1.6 km/h 87% 0.0 mm 179 W/m2
12:36 10.8 °C 8.7 °C 1012.9 hPa Calm     87% 0.0 mm 178 W/m2
12:41 10.9 °C 8.8 °C 1012.9 hPa Calm   1.6 km/h 87% 0.0 mm 251 W/m2
12:46 11.2 °C 8.9 °C 1012.9 hPa WNW 1.4 km/h 1.6 km/h 86% 0.0 mm 197 W/m2
12:51 11.4 °C 9.1 °C 1012.9 hPa Calm     86% 0.0 mm 229 W/m2
12:56 11.6 °C 9.3 °C 1012.9 hPa Calm     86% 0.0 mm 176 W/m2
13:01 11.7 °C 9.3 °C 1012.9 hPa Calm   1.6 km/h 85% 0.0 mm 153 W/m2
13:06 11.8 °C 9.4 °C 1012.5 hPa Calm     85% 0.0 mm 186 W/m2
13:11 12 °C 9.6 °C 1012.5 hPa Calm     85% 0.0 mm 218 W/m2
13:16 12.2 °C 9.8 °C 1012.5 hPa Calm     85% 0.0 mm 169 W/m2
13:21 12.4 °C 9.9 °C 1012.5 hPa East 3.2 km/h 3.2 km/h 85% 0.0 mm 172 W/m2
13:26 12.7 °C 10.2 °C 1012.2 hPa ESE 3.2 km/h 4.8 km/h 85% 0.0 mm 132 W/m2
13:31 12.9 °C 10.3 °C 1012.5 hPa Calm   3.2 km/h 84% 0.0 mm 127 W/m2
13:36 13 °C 10.4 °C 1012.5 hPa Calm   1.6 km/h 84% 0.0 mm 118 W/m2
13:41 13.1 °C 10.3 °C 1012.5 hPa South 1.4 km/h 3.2 km/h 83% 0.0 mm 107 W/m2
13:46 13.1 °C 10.3 °C 1012.5 hPa Calm     83% 0.0 mm 130 W/m2
13:51 13.2 °C 10.2 °C 1012.2 hPa Calm   3.2 km/h 82% 0.0 mm 141 W/m2
13:56 13.3 °C 10.5 °C 1012.2 hPa Calm   1.6 km/h 83% 0.0 mm 155 W/m2
14:01 13.4 °C 10.6 °C 1012.2 hPa SE 1.4 km/h 3.2 km/h 83% 0.0 mm 128 W/m2
14:06 13.6 °C 10.6 °C 1011.9 hPa NE 1.4 km/h 4.8 km/h 82% 0.0 mm 111 W/m2
14:11 13.6 °C 10.6 °C 1012.2 hPa Calm   1.6 km/h 82% 0.0 mm 51 W/m2
14:16 13.7 °C 10.7 °C 1012.5 hPa Calm     82% 0.0 mm 60 W/m2
14:21 13.7 °C 10.7 °C 1012.2 hPa Calm   1.6 km/h 82% 0.0 mm 88 W/m2
14:26 13.7 °C 10.7 °C 1012.2 hPa Calm     82% 0.0 mm 72 W/m2
14:31 13.7 °C 10.9 °C 1012.2 hPa Calm     83% 0.0 mm 72 W/m2
14:36 13.7 °C 10.7 °C 1012.5 hPa Calm     82% 0.0 mm 90 W/m2
14:41 13.7 °C 10.9 °C 1012.2 hPa Calm     83% 0.0 mm 111 W/m2
14:46 13.7 °C 10.9 °C 1012.2 hPa Calm     83% 0.0 mm 118 W/m2
14:51 13.8 °C 10.8 °C 1012.2 hPa Calm     82% 0.0 mm 98 W/m2
14:56 13.8 °C 11 °C 1012.2 hPa Calm     83% 0.0 mm 118 W/m2
15:01 13.9 °C 11.1 °C 1012.2 hPa Calm     83% 0.0 mm 116 W/m2
15:06 14 °C 11.2 °C 1012.2 hPa Calm     83% 0.0 mm 123 W/m2
15:11 14.1 °C 11.3 °C 1012.2 hPa Calm     83% 0.0 mm 104 W/m2
15:16 14.2 °C 11.4 °C 1011.9 hPa Calm     83% 0.0 mm 125 W/m2
15:21 14.3 °C 11.5 °C 1011.9 hPa Calm     83% 0.0 mm 98 W/m2
15:26 14.3 °C 11.5 °C 1011.9 hPa Calm     83% 0.0 mm 100 W/m2
15:31 14.4 °C 11.7 °C 1011.9 hPa Calm     84% 0.0 mm 111 W/m2
15:36 14.4 °C 11.7 °C 1011.9 hPa Calm     84% 0.0 mm 98 W/m2
15:41 14.6 °C 12.1 °C 1011.9 hPa Calm     85% 0.0 mm 88 W/m2
15:46 14.7 °C 12.2 °C 1011.9 hPa Calm     85% 0.0 mm 88 W/m2
15:51 14.7 °C 12.2 °C 1011.9 hPa Calm     85% 0.0 mm 81 W/m2
15:56 14.8 °C 12.3 °C 1011.9 hPa Calm     85% 0.0 mm 74 W/m2
16:01 14.8 °C 12.1 °C 1011.9 hPa Calm     84% 0.0 mm 81 W/m2
16:06 14.8 °C 12.1 °C 1011.9 hPa Calm     84% 0.0 mm 91 W/m2
16:11 14.8 °C 12.1 °C 1011.9 hPa Calm     84% 0.0 mm 72 W/m2
16:16 14.8 °C 12.1 °C 1011.9 hPa Calm     84% 0.0 mm 70 W/m2
16:21 14.8 °C 12.1 °C 1011.5 hPa Calm     84% 0.0 mm 77 W/m2
16:26 14.7 °C 12 °C 1011.5 hPa Calm     84% 0.0 mm 77 W/m2
16:31 14.7 °C 12.2 °C 1011.5 hPa Calm     85% 0.0 mm 70 W/m2
16:36 14.7 °C 12.2 °C 1011.5 hPa Calm     85% 0.0 mm 63 W/m2
16:41 14.7 °C 12.2 °C 1011.5 hPa Calm     85% 0.0 mm 58 W/m2
16:46 14.7 °C 12.2 °C 1011.5 hPa Calm     85% 0.0 mm 58 W/m2
16:51 14.6 °C 12.1 °C 1011.9 hPa Calm     85% 0.0 mm 54 W/m2
16:56 14.6 °C 12.1 °C 1011.5 hPa Calm     85% 0.0 mm 47 W/m2
17:01 14.6 °C 12.3 °C 1011.5 hPa Calm     86% 0.0 mm 49 W/m2
17:06 14.6 °C 12.5 °C 1011.5 hPa Calm     87% 0.0 mm 46 W/m2
17:11 14.6 °C 12.5 °C 1011.5 hPa Calm     87% 0.0 mm 39 W/m2
17:16 14.5 °C 12.4 °C 1011.5 hPa Calm     87% 0.0 mm 35 W/m2
17:21 14.4 °C 12.3 °C 1011.5 hPa Calm     87% 0.0 mm 37 W/m2
17:26 14.4 °C 12.3 °C 1011.5 hPa Calm     87% 0.0 mm 37 W/m2
17:31 14.3 °C 12.2 °C 1011.5 hPa Calm     87% 0.0 mm 30 W/m2
17:36 14.2 °C 12.1 °C 1011.5 hPa Calm     87% 0.0 mm 21 W/m2
17:41 14.2 °C 12.1 °C 1011.5 hPa Calm   1.6 km/h 87% 0.0 mm 18 W/m2
17:47 14.1 °C 12 °C 1011.2 hPa Calm     87% 0.0 mm 12 W/m2
17:52 14.1 °C 12.1 °C 1011.2 hPa Calm   1.6 km/h 88% 0.0 mm 12 W/m2
17:57 13.9 °C 11.9 °C 1011.2 hPa ESE 1.4 km/h 1.6 km/h 88% 0.0 mm 9 W/m2
18:02 13.9 °C 11.9 °C 1010.8 hPa Calm   1.6 km/h 88% 0.0 mm 7 W/m2
18:07 13.8 °C 11.8 °C 1011.2 hPa Calm   1.6 km/h 88% 0.0 mm 7 W/m2
18:12 13.8 °C 12 °C 1010.8 hPa Calm     89% 0.0 mm 7 W/m2
18:17 13.7 °C 11.9 °C 1010.8 hPa Calm   1.6 km/h 89% 0.0 mm 5 W/m2
18:22 13.7 °C 11.9 °C 1010.8 hPa Calm     89% 0.0 mm 0 W/m2
18:27 13.6 °C 11.8 °C 1010.8 hPa Calm     89% 0.0 mm 0 W/m2
18:32 13.5 °C 11.9 °C 1010.8 hPa Calm     90% 0.0 mm 0 W/m2
18:37 13.4 °C 11.8 °C 1010.8 hPa Calm     90% 0.0 mm 0 W/m2
18:42 13.3 °C 11.7 °C 1010.8 hPa Calm     90% 0.0 mm 0 W/m2
18:47 13.3 °C 11.9 °C 1010.8 hPa Calm     91% 0.0 mm 0 W/m2
18:52 13.2 °C 11.8 °C 1010.8 hPa Calm   1.6 km/h 91% 0.0 mm 0 W/m2
18:57 13.2 °C 11.8 °C 1010.8 hPa Calm     91% 0.0 mm 0 W/m2
19:02 13.1 °C 11.8 °C 1010.8 hPa Calm   1.6 km/h 92% 0.0 mm 0 W/m2
19:07 13.1 °C 11.8 °C 1010.8 hPa Calm     92% 0.0 mm 0 W/m2
19:12 12.9 °C 11.6 °C 1011.2 hPa Calm     92% 0.0 mm 0 W/m2
19:17 12.9 °C 11.6 °C 1011.2 hPa Calm     92% 0.0 mm 0 W/m2
19:22 12.8 °C 11.7 °C 1010.8 hPa Calm   1.6 km/h 93% 0.0 mm 0 W/m2
19:27 12.8 °C 11.7 °C 1010.8 hPa ESE 1.4 km/h 1.6 km/h 93% 0.0 mm 0 W/m2
19:32 12.7 °C 11.6 °C 1010.8 hPa Calm   1.6 km/h 93% 0.0 mm 0 W/m2
19:37 12.7 °C 11.6 °C 1010.8 hPa Calm     93% 0.0 mm 0 W/m2
19:42 12.6 °C 11.5 °C 1010.8 hPa Calm     93% 0.0 mm 0 W/m2
19:47 12.7 °C 11.6 °C 1010.8 hPa Calm   3.2 km/h 93% 0.0 mm 0 W/m2
19:52 12.7 °C 11.6 °C 1010.8 hPa Calm   1.6 km/h 93% 0.0 mm 0 W/m2
19:57 12.8 °C 11.7 °C 1010.8 hPa NNE 4.7 km/h 4.8 km/h 93% 0.0 mm 0 W/m2
20:02 13.1 °C 11.8 °C 1010.8 hPa Calm   4.8 km/h 92% 0.0 mm 0 W/m2
20:07 13.2 °C 11.8 °C 1010.8 hPa Calm   3.2 km/h 91% 0.0 mm 0 W/m2
20:12 13.2 °C 11.8 °C 1010.8 hPa Calm   4.8 km/h 91% 0.0 mm 0 W/m2
20:17 13.3 °C 11.7 °C 1010.5 hPa ENE 3.2 km/h 3.2 km/h 90% 0.0 mm 0 W/m2
20:22 13.3 °C 11.7 °C 1010.2 hPa Calm   1.6 km/h 90% 0.0 mm 0 W/m2
20:27 13.3 °C 11.7 °C 1010.2 hPa Calm     90% 0.0 mm 0 W/m2
20:32 13.2 °C 11.6 °C 1010.2 hPa SSW 1.4 km/h 1.6 km/h 90% 0.0 mm 0 W/m2
20:37 13.1 °C 11.7 °C 1010.2 hPa Calm   1.6 km/h 91% 0.0 mm 0 W/m2
20:42 13 °C 11.6 °C 1010.2 hPa Calm   1.6 km/h 91% 0.0 mm 0 W/m2
20:47 12.9 °C 11.5 °C 1010.2 hPa Calm     91% 0.0 mm 0 W/m2
20:52 12.8 °C 11.4 °C 1010.2 hPa Calm     91% 0.0 mm 0 W/m2
20:57 12.8 °C 11.4 °C 1010.2 hPa Calm     91% 0.0 mm 0 W/m2
21:34 12.2 °C 11.1 °C 1009.5 hPa Calm     93% 0.0 mm 0 W/m2
21:39 12.2 °C 11.1 °C 1009.8 hPa Calm     93% 0.0 mm 0 W/m2
21:44 12.2 °C 11.1 °C 1009.8 hPa Calm     93% 0.0 mm 0 W/m2
21:49 12.2 °C 11.1 °C 1009.5 hPa Calm     93% 0.0 mm 0 W/m2
21:54 12.2 °C 11.1 °C 1009.5 hPa Calm     93% 0.0 mm 0 W/m2
21:59 12.1 °C 11 °C 1009.8 hPa Calm     93% 0.0 mm 0 W/m2
22:04 12.1 °C 11 °C 1009.5 hPa Calm     93% 0.0 mm 0 W/m2
22:09 12.1 °C 11 °C 1009.5 hPa Calm     93% 0.0 mm 0 W/m2
22:14 12.1 °C 11 °C 1009.5 hPa Calm     93% 0.0 mm 0 W/m2
22:19 12.1 °C 11.2 °C 1009.5 hPa Calm     94% 0.0 mm 0 W/m2
22:24 12.1 °C 11.2 °C 1009.5 hPa Calm     94% 0.0 mm 0 W/m2
22:29 12.1 °C 11.2 °C 1009.5 hPa Calm     94% 0.0 mm 0 W/m2
22:34 12 °C 11.1 °C 1009.5 hPa Calm     94% 0.0 mm 0 W/m2
22:39 11.9 °C 11 °C 1009.5 hPa Calm     94% 0.0 mm 0 W/m2
22:44 11.9 °C 11 °C 1009.5 hPa Calm     94% 0.0 mm 0 W/m2
22:49 11.9 °C 11 °C 1009.1 hPa Calm     94% 0.0 mm 0 W/m2
22:54 11.9 °C 11 °C 1009.1 hPa Calm     94% 0.0 mm 0 W/m2
22:59 11.8 °C 10.9 °C 1009.1 hPa Calm     94% 0.0 mm 0 W/m2
23:04 11.8 °C 10.9 °C 1009.1 hPa Calm     94% 0.0 mm 0 W/m2
23:10 11.8 °C 10.9 °C 1009.1 hPa Calm     94% 0.0 mm 0 W/m2
23:15 11.8 °C 10.9 °C 1009.1 hPa Calm     94% 0.0 mm 0 W/m2
23:20 11.7 °C 10.8 °C 1009.1 hPa Calm     94% 0.0 mm 0 W/m2
23:25 11.7 °C 10.8 °C 1009.1 hPa Calm     94% 0.0 mm 0 W/m2
23:30 11.7 °C 10.8 °C 1009.1 hPa Calm     94% 0.0 mm 0 W/m2
23:35 11.7 °C 10.8 °C 1009.1 hPa Calm     94% 0.0 mm 0 W/m2
23:40 11.7 °C 10.8 °C 1009.1 hPa Calm     94% 0.0 mm 0 W/m2
23:45 11.7 °C 10.8 °C 1008.8 hPa Calm     94% 0.0 mm 0 W/m2
23:50 11.6 °C 10.7 °C 1009.1 hPa Calm     94% 0.0 mm 0 W/m2
23:55 11.6 °C 10.7 °C 1009.1 hPa Calm     94% 0.0 mm 0 W/m2
Juneau County Weather
Compliments of Weather Underground - 4 mb